sensor_id;sensor_type;location;lat;lon;timestamp;pressure;altitude;pressure_sealevel;temperature;humidity
10261;BME280;5175;42.606;23.388;2023-03-16T00:00:31;92804.25;;;2.97;100.00
10261;BME280;5175;42.606;23.388;2023-03-16T00:02:58;92807.94;;;3.01;100.00
10261;BME280;5175;42.606;23.388;2023-03-16T00:05:25;92802.41;;;2.97;100.00
10261;BME280;5175;42.606;23.388;2023-03-16T00:07:51;92813.44;;;2.89;100.00
10261;BME280;5175;42.606;23.388;2023-03-16T00:10:18;92821.63;;;2.98;100.00
10261;BME280;5175;42.606;23.388;2023-03-16T00:12:53;92814.13;;;2.75;100.00
10261;BME280;5175;42.606;23.388;2023-03-16T00:15:20;92813.09;;;2.81;100.00
10261;BME280;5175;42.606;23.388;2023-03-16T00:17:47;92820.16;;;2.75;100.00
10261;BME280;5175;42.606;23.388;2023-03-16T00:20:14;92826.13;;;2.97;100.00
10261;BME280;5175;42.606;23.388;2023-03-16T00:22:42;92830.50;;;2.82;100.00
10261;BME280;5175;42.606;23.388;2023-03-16T00:25:11;92835.28;;;2.90;100.00
10261;BME280;5175;42.606;23.388;2023-03-16T00:27:39;92825.63;;;2.64;100.00
10261;BME280;5175;42.606;23.388;2023-03-16T00:30:08;92828.81;;;2.66;100.00
10261;BME280;5175;42.606;23.388;2023-03-16T00:32:36;92831.41;;;2.61;100.00
10261;BME280;5175;42.606;23.388;2023-03-16T00:35:04;92835.22;;;2.43;100.00
10261;BME280;5175;42.606;23.388;2023-03-16T00:37:31;92778.16;;;2.12;100.00
10261;BME280;5175;42.606;23.388;2023-03-16T00:39:59;92839.72;;;2.47;100.00
10261;BME280;5175;42.606;23.388;2023-03-16T00:42:27;92839.78;;;2.52;100.00
10261;BME280;5175;42.606;23.388;2023-03-16T00:44:55;92829.78;;;2.54;100.00
10261;BME280;5175;42.606;23.388;2023-03-16T00:47:24;92837.66;;;2.54;100.00
10261;BME280;5175;42.606;23.388;2023-03-16T00:49:53;92834.97;;;2.44;100.00
10261;BME280;5175;42.606;23.388;2023-03-16T00:52:20;92832.84;;;2.41;100.00
10261;BME280;5175;42.606;23.388;2023-03-16T00:54:48;92839.56;;;2.27;100.00
10261;BME280;5175;42.606;23.388;2023-03-16T00:57:17;92845.06;;;2.21;100.00
10261;BME280;5175;42.606;23.388;2023-03-16T00:59:44;92840.56;;;2.21;100.00
10261;BME280;5175;42.606;23.388;2023-03-16T01:02:11;92838.91;;;2.10;100.00
10261;BME280;5175;42.606;23.388;2023-03-16T01:04:40;92843.16;;;2.16;100.00
10261;BME280;5175;42.606;23.388;2023-03-16T01:07:10;92856.88;;;2.18;100.00
10261;BME280;5175;42.606;23.388;2023-03-16T01:09:37;92848.22;;;2.23;100.00
10261;BME280;5175;42.606;23.388;2023-03-16T01:12:04;92834.28;;;2.22;100.00
10261;BME280;5175;42.606;23.388;2023-03-16T01:14:33;92841.31;;;2.17;100.00
10261;BME280;5175;42.606;23.388;2023-03-16T01:17:00;92840.56;;;2.21;100.00
10261;BME280;5175;42.606;23.388;2023-03-16T01:19:27;92847.97;;;2.24;100.00
10261;BME280;5175;42.606;23.388;2023-03-16T01:21:55;92786.00;;;1.80;100.00
10261;BME280;5175;42.606;23.388;2023-03-16T01:24:22;92839.94;;;2.09;100.00
10261;BME280;5175;42.606;23.388;2023-03-16T01:26:49;92836.91;;;2.22;100.00
10261;BME280;5175;42.606;23.388;2023-03-16T01:29:17;92839.72;;;2.16;100.00
10261;BME280;5175;42.606;23.388;2023-03-16T01:31:43;92850.25;;;2.16;100.00
10261;BME280;5175;42.606;23.388;2023-03-16T01:34:10;92835.00;;;2.13;100.00
10261;BME280;5175;42.606;23.388;2023-03-16T01:36:41;92846.59;;;2.17;100.00
10261;BME280;5175;42.606;23.388;2023-03-16T01:39:10;92855.78;;;2.14;100.00
10261;BME280;5175;42.606;23.388;2023-03-16T01:41:37;92851.88;;;2.22;100.00
10261;BME280;5175;42.606;23.388;2023-03-16T01:44:04;92846.16;;;1.98;100.00
10261;BME280;5175;42.606;23.388;2023-03-16T01:46:31;92841.31;;;1.90;100.00
10261;BME280;5175;42.606;23.388;2023-03-16T01:49:02;92849.59;;;1.72;100.00
10261;BME280;5175;42.606;23.388;2023-03-16T01:51:35;92851.69;;;1.75;100.00
10261;BME280;5175;42.606;23.388;2023-03-16T01:54:05;92854.09;;;1.76;100.00
10261;BME280;5175;42.606;23.388;2023-03-16T01:56:37;92858.50;;;1.71;100.00
10261;BME280;5175;42.606;23.388;2023-03-16T01:59:09;92862.13;;;1.92;100.00
10261;BME280;5175;42.606;23.388;2023-03-16T02:01:36;92854.38;;;1.80;100.00
10261;BME280;5175;42.606;23.388;2023-03-16T02:04:11;92867.53;;;1.80;100.00
10261;BME280;5175;42.606;23.388;2023-03-16T02:06:40;92865.94;;;1.79;100.00
10261;BME280;5175;42.606;23.388;2023-03-16T02:09:08;92863.28;;;1.74;100.00
10261;BME280;5175;42.606;23.388;2023-03-16T02:11:37;92876.03;;;1.87;100.00
10261;BME280;5175;42.606;23.388;2023-03-16T02:14:07;92891.28;;;1.90;100.00
10261;BME280;5175;42.606;23.388;2023-03-16T02:16:35;92872.78;;;1.80;100.00
10261;BME280;5175;42.606;23.388;2023-03-16T02:19:02;92891.66;;;1.72;100.00
10261;BME280;5175;42.606;23.388;2023-03-16T02:21:34;92862.59;;;1.62;100.00
10261;BME280;5175;42.606;23.388;2023-03-16T02:24:03;92890.97;;;1.60;100.00
10261;BME280;5175;42.606;23.388;2023-03-16T02:26:38;92894.75;;;1.69;100.00
10261;BME280;5175;42.606;23.388;2023-03-16T02:29:22;92896.84;;;1.67;100.00
10261;BME280;5175;42.606;23.388;2023-03-16T02:31:56;92905.50;;;1.67;100.00
10261;BME280;5175;42.606;23.388;2023-03-16T02:34:24;92907.81;;;1.85;100.00
10261;BME280;5175;42.606;23.388;2023-03-16T02:36:53;92904.78;;;1.72;100.00
10261;BME280;5175;42.606;23.388;2023-03-16T02:39:20;92901.66;;;1.75;100.00
10261;BME280;5175;42.606;23.388;2023-03-16T02:41:47;92909.41;;;1.65;100.00
10261;BME280;5175;42.606;23.388;2023-03-16T02:44:16;92896.84;;;1.67;100.00
10261;BME280;5175;42.606;23.388;2023-03-16T02:46:45;92907.59;;;1.65;100.00
10261;BME280;5175;42.606;23.388;2023-03-16T02:49:17;92878.69;;;1.44;100.00
10261;BME280;5175;42.606;23.388;2023-03-16T02:51:45;92901.06;;;1.68;100.00
10261;BME280;5175;42.606;23.388;2023-03-16T02:54:13;92915.00;;;1.68;100.00
10261;BME280;5175;42.606;23.388;2023-03-16T02:56:39;92911.41;;;1.74;100.00
10261;BME280;5175;42.606;23.388;2023-03-16T02:59:06;92900.88;;;1.53;100.00
10261;BME280;5175;42.606;23.388;2023-03-16T03:01:33;92927.06;;;1.64;100.00
10261;BME280;5175;42.606;23.388;2023-03-16T03:04:01;92915.97;;;1.62;100.00
10261;BME280;5175;42.606;23.388;2023-03-16T03:06:29;92917.03;;;1.61;100.00
10261;BME280;5175;42.606;23.388;2023-03-16T03:08:56;92915.72;;;1.64;100.00
10261;BME280;5175;42.606;23.388;2023-03-16T03:11:23;92921.34;;;1.51;100.00
10261;BME280;5175;42.606;23.388;2023-03-16T03:13:50;92928.88;;;1.64;100.00
10261;BME280;5175;42.606;23.388;2023-03-16T03:16:17;92932.16;;;1.54;100.00
10261;BME280;5175;42.606;23.388;2023-03-16T03:18:44;92935.09;;;1.58;100.00
10261;BME280;5175;42.606;23.388;2023-03-16T03:21:11;92930.25;;;1.50;100.00
10261;BME280;5175;42.606;23.388;2023-03-16T03:23:39;92933.31;;;1.42;100.00
10261;BME280;5175;42.606;23.388;2023-03-16T03:26:05;92934.84;;;1.38;100.00
10261;BME280;5175;42.606;23.388;2023-03-16T03:28:32;92940.38;;;1.19;100.00
10261;BME280;5175;42.606;23.388;2023-03-16T03:30:59;92943.56;;;1.21;100.00
10261;BME280;5175;42.606;23.388;2023-03-16T03:33:27;92929.63;;;1.21;100.00
10261;BME280;5175;42.606;23.388;2023-03-16T03:35:54;92947.22;;;1.20;100.00
10261;BME280;5175;42.606;23.388;2023-03-16T03:38:21;92944.91;;;1.24;100.00
10261;BME280;5175;42.606;23.388;2023-03-16T03:40:50;92938.00;;;1.18;100.00
10261;BME280;5175;42.606;23.388;2023-03-16T03:43:18;92957.63;;;1.32;100.00
10261;BME280;5175;42.606;23.388;2023-03-16T03:45:45;92957.56;;;1.27;100.00
10261;BME280;5175;42.606;23.388;2023-03-16T03:48:12;92947.59;;;1.29;100.00
10261;BME280;5175;42.606;23.388;2023-03-16T03:50:39;92948.75;;;1.16;100.00
10261;BME280;5175;42.606;23.388;2023-03-16T03:53:06;92964.09;;;1.24;100.00
10261;BME280;5175;42.606;23.388;2023-03-16T03:55:32;92971.78;;;1.31;100.00
10261;BME280;5175;42.606;23.388;2023-03-16T03:58:00;92958.00;;;1.02;100.00
10261;BME280;5175;42.606;23.388;2023-03-16T04:00:27;92967.53;;;1.08;100.00
10261;BME280;5175;42.606;23.388;2023-03-16T04:02:54;92986.72;;;1.25;100.00
10261;BME280;5175;42.606;23.388;2023-03-16T04:05:21;92991.75;;;1.10;100.00
10261;BME280;5175;42.606;23.388;2023-03-16T04:07:51;92981.13;;;1.05;100.00
10261;BME280;5175;42.606;23.388;2023-03-16T04:10:21;92968.56;;;0.91;100.00
10261;BME280;5175;42.606;23.388;2023-03-16T04:12:48;92988.63;;;0.97;100.00
10261;BME280;5175;42.606;23.388;2023-03-16T04:15:16;92984.63;;;1.11;100.00
10261;BME280;5175;42.606;23.388;2023-03-16T04:17:42;92991.16;;;1.08;100.00
10261;BME280;5175;42.606;23.388;2023-03-16T04:20:10;92994.75;;;1.19;100.00
10261;BME280;5175;42.606;23.388;2023-03-16T04:22:39;92995.47;;;1.14;100.00
10261;BME280;5175;42.606;23.388;2023-03-16T04:25:07;92996.66;;;1.07;100.00
10261;BME280;5175;42.606;23.388;2023-03-16T04:27:34;93000.38;;;1.11;100.00
10261;BME280;5175;42.606;23.388;2023-03-16T04:30:02;92997.53;;;0.96;100.00
10261;BME280;5175;42.606;23.388;2023-03-16T04:32:31;93008.13;;;1.01;100.00
10261;BME280;5175;42.606;23.388;2023-03-16T04:34:57;93009.00;;;1.06;100.00
10261;BME280;5175;42.606;23.388;2023-03-16T04:37:24;92996.66;;;1.07;100.00
10261;BME280;5175;42.606;23.388;2023-03-16T04:39:51;93014.88;;;1.13;100.00
10261;BME280;5175;42.606;23.388;2023-03-16T04:42:18;93007.56;;;1.15;100.00
10261;BME280;5175;42.606;23.388;2023-03-16T04:44:46;93010.22;;;1.15;100.00
10261;BME280;5175;42.606;23.388;2023-03-16T04:47:14;93022.75;;;1.13;100.00
10261;BME280;5175;42.606;23.388;2023-03-16T04:49:42;93033.03;;;1.15;100.00
10261;BME280;5175;42.606;23.388;2023-03-16T04:52:10;93030.34;;;1.10;100.00
10261;BME280;5175;42.606;23.388;2023-03-16T04:54:36;93039.09;;;1.15;100.00
10261;BME280;5175;42.606;23.388;2023-03-16T04:57:03;93032.13;;;1.26;100.00
10261;BME280;5175;42.606;23.388;2023-03-16T04:59:30;93056.59;;;1.43;100.00
10261;BME280;5175;42.606;23.388;2023-03-16T05:01:57;93045.19;;;1.38;100.00
10261;BME280;5175;42.606;23.388;2023-03-16T05:04:23;93033.66;;;1.22;100.00
10261;BME280;5175;42.606;23.388;2023-03-16T05:06:51;93054.69;;;1.22;100.00
10261;BME280;5175;42.606;23.388;2023-03-16T05:09:18;93055.41;;;1.17;100.00
10261;BME280;5175;42.606;23.388;2023-03-16T05:11:45;93052.44;;;1.14;100.00
10261;BME280;5175;42.606;23.388;2023-03-16T05:14:12;93068.84;;;1.21;100.00
10261;BME280;5175;42.606;23.388;2023-03-16T05:16:38;93062.75;;;1.15;100.00
10261;BME280;5175;42.606;23.388;2023-03-16T05:19:06;93064.47;;;1.26;100.00
10261;BME280;5175;42.606;23.388;2023-03-16T05:21:33;93066.53;;;1.24;100.00
10261;BME280;5175;42.606;23.388;2023-03-16T05:24:03;93078.50;;;1.32;100.00
10261;BME280;5175;42.606;23.388;2023-03-16T05:26:30;93077.53;;;1.21;100.00
10261;BME280;5175;42.606;23.388;2023-03-16T05:28:58;93060.81;;;1.11;100.00
10261;BME280;5175;42.606;23.388;2023-03-16T05:31:25;93084.59;;;1.21;100.00
10261;BME280;5175;42.606;23.388;2023-03-16T05:33:53;93086.53;;;1.25;100.00
10261;BME280;5175;42.606;23.388;2023-03-16T05:36:20;93087.97;;;1.33;100.00
10261;BME280;5175;42.606;23.388;2023-03-16T05:38:47;93088.84;;;1.39;100.00
10261;BME280;5175;42.606;23.388;2023-03-16T05:41:15;93089.06;;;1.37;100.00
10261;BME280;5175;42.606;23.388;2023-03-16T05:43:42;93093.38;;;1.26;100.00
10261;BME280;5175;42.606;23.388;2023-03-16T05:46:09;93099.03;;;1.35;100.00
10261;BME280;5175;42.606;23.388;2023-03-16T05:48:36;93089.56;;;1.17;100.00
10261;BME280;5175;42.606;23.388;2023-03-16T05:51:03;93098.53;;;1.21;100.00
10261;BME280;5175;42.606;23.388;2023-03-16T05:53:30;93097.91;;;1.31;100.00
10261;BME280;5175;42.606;23.388;2023-03-16T05:55:57;93090.91;;;1.37;100.00
10261;BME280;5175;42.606;23.388;2023-03-16T05:58:27;93112.56;;;1.27;100.00
10261;BME280;5175;42.606;23.388;2023-03-16T06:00:53;93105.78;;;1.31;100.00
10261;BME280;5175;42.606;23.388;2023-03-16T06:03:20;93110.41;;;1.24;100.00
10261;BME280;5175;42.606;23.388;2023-03-16T06:05:47;93109.22;;;1.15;100.00
10261;BME280;5175;42.606;23.388;2023-03-16T06:08:14;93130.53;;;1.18;100.00
10261;BME280;5175;42.606;23.388;2023-03-16T06:10:41;93130.78;;;1.17;100.00
10261;BME280;5175;42.606;23.388;2023-03-16T06:13:08;93127.69;;;1.20;100.00
10261;BME280;5175;42.606;23.388;2023-03-16T06:15:36;93134.13;;;1.12;100.00
10261;BME280;5175;42.606;23.388;2023-03-16T06:18:02;93129.81;;;1.06;100.00
10261;BME280;5175;42.606;23.388;2023-03-16T06:20:29;93140.47;;;1.16;100.00
10261;BME280;5175;42.606;23.388;2023-03-16T06:22:56;93135.22;;;1.16;100.00
10261;BME280;5175;42.606;23.388;2023-03-16T06:25:22;93142.00;;;1.12;100.00
10261;BME280;5175;42.606;23.388;2023-03-16T06:27:49;93153.41;;;1.18;100.00
10261;BME280;5175;42.606;23.388;2023-03-16T06:30:16;93143.50;;;1.08;100.00
10261;BME280;5175;42.606;23.388;2023-03-16T06:32:44;93148.19;;;1.06;100.00
10261;BME280;5175;42.606;23.388;2023-03-16T06:35:12;93158.88;;;1.16;100.00
10261;BME280;5175;42.606;23.388;2023-03-16T06:37:39;93156.81;;;1.18;100.00
10261;BME280;5175;42.606;23.388;2023-03-16T06:40:06;93160.22;;;1.19;100.00
10261;BME280;5175;42.606;23.388;2023-03-16T06:42:34;93139.59;;;1.11;100.00
10261;BME280;5175;42.606;23.388;2023-03-16T06:45:00;93168.44;;;1.22;100.00
10261;BME280;5175;42.606;23.388;2023-03-16T06:47:27;93174.25;;;1.24;100.00
10261;BME280;5175;42.606;23.388;2023-03-16T06:49:55;93174.09;;;1.31;100.00
10261;BME280;5175;42.606;23.388;2023-03-16T06:52:22;93180.97;;;1.32;100.00
10261;BME280;5175;42.606;23.388;2023-03-16T06:54:49;93178.78;;;1.29;100.00
10261;BME280;5175;42.606;23.388;2023-03-16T06:57:16;93180.56;;;1.40;100.00
10261;BME280;5175;42.606;23.388;2023-03-16T06:59:43;93184.28;;;1.27;100.00
10261;BME280;5175;42.606;23.388;2023-03-16T07:02:11;93185.69;;;1.18;100.00
10261;BME280;5175;42.606;23.388;2023-03-16T07:04:38;93180.03;;;1.38;100.00
10261;BME280;5175;42.606;23.388;2023-03-16T07:07:07;93193.31;;;1.48;100.00
10261;BME280;5175;42.606;23.388;2023-03-16T07:09:34;93202.97;;;1.59;100.00
10261;BME280;5175;42.606;23.388;2023-03-16T07:12:01;93202.50;;;1.62;100.00
10261;BME280;5175;42.606;23.388;2023-03-16T07:14:29;93196.75;;;1.49;100.00
10261;BME280;5175;42.606;23.388;2023-03-16T07:16:56;93207.53;;;1.64;100.00
10261;BME280;5175;42.606;23.388;2023-03-16T07:19:22;93207.28;;;1.65;100.00
10261;BME280;5175;42.606;23.388;2023-03-16T07:21:49;93195.97;;;1.65;100.00
10261;BME280;5175;42.606;23.388;2023-03-16T07:24:17;93203.84;;;1.65;100.00
10261;BME280;5175;42.606;23.388;2023-03-16T07:26:44;93197.09;;;1.69;100.00
10261;BME280;5175;42.606;23.388;2023-03-16T07:29:11;93205.88;;;1.74;100.00
10261;BME280;5175;42.606;23.388;2023-03-16T07:31:39;93208.16;;;1.71;100.00
10261;BME280;5175;42.606;23.388;2023-03-16T07:34:05;93228.63;;;1.85;100.00
10261;BME280;5175;42.606;23.388;2023-03-16T07:36:32;93226.56;;;1.87;100.00
10261;BME280;5175;42.606;23.388;2023-03-16T07:38:59;93220.38;;;1.77;100.00
10261;BME280;5175;42.606;23.388;2023-03-16T07:41:27;93230.63;;;1.78;100.00
10261;BME280;5175;42.606;23.388;2023-03-16T07:43:54;93227.63;;;1.86;100.00
10261;BME280;5175;42.606;23.388;2023-03-16T07:46:22;93218.53;;;1.94;100.00
10261;BME280;5175;42.606;23.388;2023-03-16T07:48:49;93228.03;;;1.95;100.00
10261;BME280;5175;42.606;23.388;2023-03-16T07:51:16;93236.69;;;1.96;100.00
10261;BME280;5175;42.606;23.388;2023-03-16T07:53:43;93227.69;;;2.08;100.00
10261;BME280;5175;42.606;23.388;2023-03-16T07:56:09;93238.69;;;2.05;100.00
10261;BME280;5175;42.606;23.388;2023-03-16T07:58:38;93245.47;;;2.18;100.00
10261;BME280;5175;42.606;23.388;2023-03-16T08:01:06;93246.66;;;2.27;100.00
10261;BME280;5175;42.606;23.388;2023-03-16T08:03:33;93249.91;;;2.34;100.00
10261;BME280;5175;42.606;23.388;2023-03-16T08:06:00;93253.19;;;2.41;100.00
10261;BME280;5175;42.606;23.388;2023-03-16T08:08:27;93239.16;;;2.19;100.00
10261;BME280;5175;42.606;23.388;2023-03-16T08:10:53;93253.56;;;2.49;100.00
10261;BME280;5175;42.606;23.388;2023-03-16T08:13:20;93259.22;;;2.58;100.00
10261;BME280;5175;42.606;23.388;2023-03-16T08:15:50;93263.59;;;2.52;100.00
10261;BME280;5175;42.606;23.388;2023-03-16T08:18:23;93266.09;;;2.59;100.00
10261;BME280;5175;42.606;23.388;2023-03-16T08:20:50;93269.19;;;2.56;100.00
10261;BME280;5175;42.606;23.388;2023-03-16T08:23:16;93271.91;;;2.61;100.00
10261;BME280;5175;42.606;23.388;2023-03-16T08:25:43;93269.69;;;2.53;100.00
10261;BME280;5175;42.606;23.388;2023-03-16T08:28:10;93271.44;;;2.64;100.00
10261;BME280;5175;42.606;23.388;2023-03-16T08:30:43;93264.22;;;2.76;100.00
10261;BME280;5175;42.606;23.388;2023-03-16T08:33:11;93264.63;;;2.68;100.00
10261;BME280;5175;42.606;23.388;2023-03-16T08:35:40;93272.19;;;2.81;100.00
10261;BME280;5175;42.606;23.388;2023-03-16T08:38:08;93263.13;;;2.94;100.00
10261;BME280;5175;42.606;23.388;2023-03-16T08:40:34;93271.81;;;2.94;100.00
10261;BME280;5175;42.606;23.388;2023-03-16T08:43:01;93286.88;;;2.77;100.00
10261;BME280;5175;42.606;23.388;2023-03-16T08:45:28;93288.47;;;2.78;100.00
10261;BME280;5175;42.606;23.388;2023-03-16T08:47:55;93306.03;;;2.73;100.00
10261;BME280;5175;42.606;23.388;2023-03-16T08:50:24;93297.91;;;2.74;100.00
10261;BME280;5175;42.606;23.388;2023-03-16T08:52:52;93297.34;;;2.72;100.00
10261;BME280;5175;42.606;23.388;2023-03-16T08:55:18;93306.75;;;2.68;100.00
10261;BME280;5175;42.606;23.388;2023-03-16T08:57:45;93301.22;;;2.70;100.00
10261;BME280;5175;42.606;23.388;2023-03-16T09:00:13;93298.03;;;2.84;100.00
10261;BME280;5175;42.606;23.388;2023-03-16T09:02:42;93308.09;;;3.09;100.00
10261;BME280;5175;42.606;23.388;2023-03-16T09:05:12;93298.13;;;3.33;100.00
10261;BME280;5175;42.606;23.388;2023-03-16T09:07:41;93319.13;;;3.49;100.00
10261;BME280;5175;42.606;23.388;2023-03-16T09:10:09;93309.69;;;3.32;100.00
10261;BME280;5175;42.606;23.388;2023-03-16T09:12:40;93315.28;;;3.13;100.00
10261;BME280;5175;42.606;23.388;2023-03-16T09:15:08;93323.44;;;3.12;100.00
10261;BME280;5175;42.606;23.388;2023-03-16T09:17:36;93315.91;;;3.21;100.00
10261;BME280;5175;42.606;23.388;2023-03-16T09:20:05;93323.31;;;3.24;100.00
10261;BME280;5175;42.606;23.388;2023-03-16T09:22:34;93326.25;;;3.27;100.00
10261;BME280;5175;42.606;23.388;2023-03-16T09:25:03;93323.56;;;3.00;100.00
10261;BME280;5175;42.606;23.388;2023-03-16T09:27:30;93314.13;;;3.04;100.00
10261;BME280;5175;42.606;23.388;2023-03-16T09:29:57;93323.63;;;3.05;100.00
10261;BME280;5175;42.606;23.388;2023-03-16T09:32:25;93328.28;;;3.20;100.00
10261;BME280;5175;42.606;23.388;2023-03-16T09:34:52;93319.69;;;3.08;100.00
10261;BME280;5175;42.606;23.388;2023-03-16T09:37:19;93322.03;;;2.88;100.00
10261;BME280;5175;42.606;23.388;2023-03-16T09:39:46;93324.31;;;3.01;100.00
10261;BME280;5175;42.606;23.388;2023-03-16T09:42:16;93277.16;;;2.61;100.00
10261;BME280;5175;42.606;23.388;2023-03-16T09:44:55;93326.75;;;3.02;100.00
10261;BME280;5175;42.606;23.388;2023-03-16T09:47:26;93329.19;;;3.09;100.00
10261;BME280;5175;42.606;23.388;2023-03-16T09:49:56;93338.78;;;2.98;100.00
10261;BME280;5175;42.606;23.388;2023-03-16T09:52:28;93345.19;;;3.02;100.00
10261;BME280;5175;42.606;23.388;2023-03-16T09:55:03;93337.81;;;3.04;100.00
10261;BME280;5175;42.606;23.388;2023-03-16T09:57:36;93336.19;;;3.20;100.00
10261;BME280;5175;42.606;23.388;2023-03-16T10:00:14;93340.34;;;3.16;100.00
10261;BME280;5175;42.606;23.388;2023-03-16T10:03:00;93339.97;;;3.29;100.00
10261;BME280;5175;42.606;23.388;2023-03-16T10:05:31;93341.25;;;3.05;100.00
10261;BME280;5175;42.606;23.388;2023-03-16T10:08:06;93338.06;;;3.03;100.00
10261;BME280;5175;42.606;23.388;2023-03-16T10:11:16;93339.59;;;2.99;100.00
10261;BME280;5175;42.606;23.388;2023-03-16T10:13:50;93333.78;;;3.18;100.00
10261;BME280;5175;42.606;23.388;2023-03-16T10:16:24;93345.38;;;3.17;100.00
10261;BME280;5175;42.606;23.388;2023-03-16T10:18:58;93337.91;;;3.09;100.00
10261;BME280;5175;42.606;23.388;2023-03-16T10:21:26;93338.03;;;3.41;100.00
10261;BME280;5175;42.606;23.388;2023-03-16T10:23:56;93337.28;;;3.24;100.00
10261;BME280;5175;42.606;23.388;2023-03-16T10:26:31;93347.88;;;3.07;100.00
10261;BME280;5175;42.606;23.388;2023-03-16T10:29:00;93342.38;;;3.09;100.00
10261;BME280;5175;42.606;23.388;2023-03-16T10:31:28;93333.69;;;3.30;100.00
10261;BME280;5175;42.606;23.388;2023-03-16T10:34:03;93344.31;;;3.18;100.00
10261;BME280;5175;42.606;23.388;2023-03-16T10:36:32;93345.81;;;3.09;100.00
10261;BME280;5175;42.606;23.388;2023-03-16T10:39:02;93340.53;;;3.09;100.00
10261;BME280;5175;42.606;23.388;2023-03-16T10:41:54;93328.09;;;3.27;100.00
10261;BME280;5175;42.606;23.388;2023-03-16T10:44:25;93333.38;;;3.48;100.00
10261;BME280;5175;42.606;23.388;2023-03-16T10:46:58;93341.09;;;3.55;100.00
10261;BME280;5175;42.606;23.388;2023-03-16T10:49:27;93345.16;;;3.41;100.00
10261;BME280;5175;42.606;23.388;2023-03-16T10:51:56;93347.53;;;3.42;100.00
10261;BME280;5175;42.606;23.388;2023-03-16T10:54:27;93338.94;;;3.52;100.00
10261;BME280;5175;42.606;23.388;2023-03-16T10:56:55;93336.69;;;3.60;100.00
10261;BME280;5175;42.606;23.388;2023-03-16T10:59:29;93340.69;;;3.41;100.00
10261;BME280;5175;42.606;23.388;2023-03-16T11:01:58;93349.44;;;3.25;100.00
10261;BME280;5175;42.606;23.388;2023-03-16T11:04:30;93354.16;;;3.23;100.00
10261;BME280;5175;42.606;23.388;2023-03-16T11:06:57;93357.16;;;3.32;100.00
10261;BME280;5175;42.606;23.388;2023-03-16T11:09:25;93359.31;;;3.35;100.00
10261;BME280;5175;42.606;23.388;2023-03-16T11:11:57;93346.25;;;3.45;100.00
10261;BME280;5175;42.606;23.388;2023-03-16T11:14:27;93347.72;;;3.57;100.00
10261;BME280;5175;42.606;23.388;2023-03-16T11:16:59;93345.34;;;3.56;100.00
10261;BME280;5175;42.606;23.388;2023-03-16T11:19:30;93344.84;;;3.59;100.00
10261;BME280;5175;42.606;23.388;2023-03-16T11:22:00;93332.47;;;3.38;100.00
10261;BME280;5175;42.606;23.388;2023-03-16T11:24:33;93344.53;;;3.55;100.00
10261;BME280;5175;42.606;23.388;2023-03-16T11:27:10;93342.69;;;3.56;100.00
10261;BME280;5175;42.606;23.388;2023-03-16T11:29:48;93350.59;;;3.34;100.00
10261;BME280;5175;42.606;23.388;2023-03-16T11:32:19;93351.22;;;3.41;100.00
10261;BME280;5175;42.606;23.388;2023-03-16T11:34:48;93343.88;;;3.43;100.00
10261;BME280;5175;42.606;23.388;2023-03-16T11:37:22;93353.28;;;3.39;100.00
10261;BME280;5175;42.606;23.388;2023-03-16T11:39:59;93359.19;;;3.46;100.00
10261;BME280;5175;42.606;23.388;2023-03-16T11:42:36;93356.19;;;3.38;100.00
10261;BME280;5175;42.606;23.388;2023-03-16T11:45:18;93355.63;;;3.36;100.00
10261;BME280;5175;42.606;23.388;2023-03-16T11:50:52;93340.31;;;3.33;100.00
10261;BME280;5175;42.606;23.388;2023-03-16T11:53:31;93362.19;;;3.33;100.00
10261;BME280;5175;42.606;23.388;2023-03-16T11:56:09;93346.13;;;3.35;100.00
10261;BME280;5175;42.606;23.388;2023-03-16T11:58:52;93344.16;;;3.68;100.00
10261;BME280;5175;42.606;23.388;2023-03-16T12:01:29;93352.44;;;3.55;100.00
10261;BME280;5175;42.606;23.388;2023-03-16T12:04:21;93354.66;;;3.63;100.00
10261;BME280;5175;42.606;23.388;2023-03-16T12:07:11;93351.72;;;3.38;100.00
10261;BME280;5175;42.606;23.388;2023-03-16T12:12:47;93348.03;;;3.39;100.00
10261;BME280;5175;42.606;23.388;2023-03-16T12:15:39;93347.38;;;3.49;100.00
10261;BME280;5175;42.606;23.388;2023-03-16T12:18:16;93361.94;;;3.35;100.00
10261;BME280;5175;42.606;23.388;2023-03-16T12:20:48;93366.00;;;3.21;100.00
10261;BME280;5175;42.606;23.388;2023-03-16T12:23:19;93364.22;;;3.26;100.00
10261;BME280;5175;42.606;23.388;2023-03-16T12:25:49;93365.56;;;3.29;100.00
10261;BME280;5175;42.606;23.388;2023-03-16T12:28:22;93367.09;;;3.25;100.00
10261;BME280;5175;42.606;23.388;2023-03-16T12:30:58;93366.13;;;3.31;100.00
10261;BME280;5175;42.606;23.388;2023-03-16T12:33:38;93376.06;;;3.07;100.00
10261;BME280;5175;42.606;23.388;2023-03-16T12:36:40;93364.69;;;2.85;100.00
10261;BME280;5175;42.606;23.388;2023-03-16T12:39:13;93374.53;;;3.11;100.00
10261;BME280;5175;42.606;23.388;2023-03-16T12:41:51;93376.69;;;3.14;100.00
10261;BME280;5175;42.606;23.388;2023-03-16T12:44:27;93365.16;;;2.82;100.00
10261;BME280;5175;42.606;23.388;2023-03-16T12:47:02;93382.22;;;2.96;100.00
10261;BME280;5175;42.606;23.388;2023-03-16T12:49:34;93380.88;;;2.93;100.00
10261;BME280;5175;42.606;23.388;2023-03-16T12:52:04;93388.03;;;2.98;100.00
10261;BME280;5175;42.606;23.388;2023-03-16T12:54:32;93386.78;;;3.00;100.00
10261;BME280;5175;42.606;23.388;2023-03-16T12:57:00;93388.28;;;3.13;100.00
10261;BME280;5175;42.606;23.388;2023-03-16T12:59:36;93390.47;;;2.99;100.00
10261;BME280;5175;42.606;23.388;2023-03-16T13:02:10;93381.69;;;2.94;100.00
10261;BME280;5175;42.606;23.388;2023-03-16T13:04:44;93388.59;;;3.16;100.00
10261;BME280;5175;42.606;23.388;2023-03-16T13:07:16;93382.44;;;3.11;100.00
10261;BME280;5175;42.606;23.388;2023-03-16T13:09:46;93391.22;;;3.16;100.00
10261;BME280;5175;42.606;23.388;2023-03-16T13:12:25;93390.66;;;3.14;100.00
10261;BME280;5175;42.606;23.388;2023-03-16T13:14:53;93388.00;;;3.31;100.00
10261;BME280;5175;42.606;23.388;2023-03-16T13:17:27;93403.84;;;2.98;100.00